Time;durP1;ratioP1;P1;durP2;ratioP2;P2;SDS_P1;SDS_P2;PMS_P1;PMS_P2;Temp;Humidity;BMP_temperature;BMP_pressure;BME280_temperature;BME280_humidity;BME280_pressure;Samples;Min_cycle;Max_cycle;Signal;HPM_P1;HPM_P2
2022/10/06 00:00:49;;;;;;;;;;;;;;;15.28;60.27;96230.72;5068973;28;20419;-66
2022/10/06 00:03:15;;;;;;;;;;;;;;;15.58;60.07;96285.47;5068304;28;20017;-65
2022/10/06 00:05:40;;;;;;;;;;;;;;;15.58;60.31;96279.31;5067636;28;20063;-65
2022/10/06 00:08:05;;;;;;;;;;;;;;;15.58;60.12;96295.41;5068518;28;20013;-66
2022/10/06 00:10:31;;;;;;;;;;;;;;;15.59;59.81;96291.63;5067421;28;20107;-66
2022/10/06 00:12:57;;;;;;;;;;;;;;;15.54;59.47;96292.53;5069331;28;20013;-66
2022/10/06 00:15:26;;;;;;;;;;;;;;;15.62;59.52;96288.34;5068195;28;20109;-66
2022/10/06 00:17:51;;;;;;;;;;;;;;;15.64;59.23;96288.06;5070054;28;20053;-65
2022/10/06 00:20:17;;;;;;;;;;;;;;;15.67;59.00;96293.59;5067996;28;20446;-66
2022/10/06 00:22:43;;;;;;;;;;;;;;;15.70;58.78;96286.81;5068001;28;20563;-66
2022/10/06 00:25:10;;;;;;;;;;;;;;;15.68;58.57;96289.03;5069274;28;20061;-66
2022/10/06 00:27:36;;;;;;;;;;;;;;;15.70;58.36;96289.50;5067643;28;20017;-66
2022/10/06 00:30:05;;;;;;;;;;;;;;;15.72;57.81;96295.38;5069095;28;20013;-66
2022/10/06 00:32:31;;;;;;;;;;;;;;;15.75;57.68;96300.88;5069584;28;20051;-66
2022/10/06 00:34:57;;;;;;;;;;;;;;;15.75;57.78;96295.53;5069007;28;20460;-66
2022/10/06 00:37:23;;;;;;;;;;;;;;;15.74;57.45;96295.84;5069442;28;20430;-66
2022/10/06 00:39:48;;;;;;;;;;;;;;;15.78;57.53;96297.59;5067254;28;20016;-66
2022/10/06 00:42:24;;;;;;;;;;;;;;;15.75;57.49;96300.09;5069177;28;20489;-66
2022/10/06 00:44:49;;;;;;;;;;;;;;;15.68;57.56;96302.44;5067963;28;20111;-66
2022/10/06 00:47:15;;;;;;;;;;;;;;;15.67;57.87;96293.59;5067886;28;20115;-66
2022/10/06 00:49:40;;;;;;;;;;;;;;;15.63;57.92;96300.69;5065071;28;20017;-65
2022/10/06 00:52:07;;;;;;;;;;;;;;;15.61;57.92;96310.91;5066098;28;20017;-64
2022/10/06 00:54:34;;;;;;;;;;;;;;;15.52;57.96;96302.78;5067866;28;20013;-65
2022/10/06 00:57:00;;;;;;;;;;;;;;;15.49;58.04;96302.59;5068633;28;20020;-65
2022/10/06 00:59:26;;;;;;;;;;;;;;;15.42;57.92;96307.63;5067286;28;20021;-65
2022/10/06 01:02:26;;;;;;;;;;;;;;;15.28;58.19;96310.34;5064544;28;20107;-66
2022/10/06 01:04:54;;;;;;;;;;;;;;;15.09;58.79;96305.16;4987237;28;20113;-66
2022/10/06 01:07:20;;;;;;;;;;;;;;;15.12;59.17;96309.94;5055805;28;20016;-66
2022/10/06 01:09:46;;;;;;;;;;;;;;;15.27;58.48;96306.09;5067703;28;20017;-64
2022/10/06 01:12:12;;;;;;;;;;;;;;;15.05;58.81;96310.38;5068180;28;20496;-66
2022/10/06 01:14:38;;;;;;;;;;;;;;;15.02;58.82;96308.28;5068261;28;20028;-66
2022/10/06 01:17:16;;;;;;;;;;;;;;;15.01;58.87;96303.22;5068105;28;20024;-64
2022/10/06 01:19:59;;;;;;;;;;;;;;;14.86;59.47;96309.72;5067530;28;20024;-65
2022/10/06 01:22:45;;;;;;;;;;;;;;;14.95;59.29;96313.28;5067571;28;20020;-65
2022/10/06 01:25:15;;;;;;;;;;;;;;;14.95;59.52;96299.09;5067620;28;20044;-64
2022/10/06 01:27:42;;;;;;;;;;;;;;;14.94;59.33;96313.56;5049791;28;20017;-65
2022/10/06 01:30:10;;;;;;;;;;;;;;;14.92;59.69;96310.41;5056183;28;20098;-65
2022/10/06 01:32:36;;;;;;;;;;;;;;;14.92;59.44;96307.72;5068655;28;20017;-65
2022/10/06 01:35:01;;;;;;;;;;;;;;;14.91;59.47;96314.19;5067858;28;20017;-66
2022/10/06 01:37:27;;;;;;;;;;;;;;;14.87;59.82;96313.19;5067966;28;20102;-65
2022/10/06 01:39:52;;;;;;;;;;;;;;;14.90;59.75;96315.28;5069552;28;20516;-65
2022/10/06 01:42:17;;;;;;;;;;;;;;;14.91;59.34;96312.28;5066088;28;20019;-65
2022/10/06 01:44:42;;;;;;;;;;;;;;;14.91;59.56;96317.66;5067542;28;20018;-64
2022/10/06 01:47:07;;;;;;;;;;;;;;;15.01;58.87;96313.94;5066936;28;20021;-65
2022/10/06 01:49:33;;;;;;;;;;;;;;;15.08;58.73;96317.00;5069532;28;20419;-64
2022/10/06 01:51:58;;;;;;;;;;;;;;;15.06;58.67;96316.50;5068137;28;20021;-66
2022/10/06 01:54:24;;;;;;;;;;;;;;;15.15;58.16;96322.75;5063077;28;20014;-65
2022/10/06 01:56:49;;;;;;;;;;;;;;;15.22;57.61;96325.78;5067101;28;20013;-65
2022/10/06 01:59:14;;;;;;;;;;;;;;;15.20;57.56;96327.16;5067568;28;20125;-66
2022/10/06 02:01:39;;;;;;;;;;;;;;;15.42;57.32;96311.09;5066232;28;20083;-66
2022/10/06 02:04:04;;;;;;;;;;;;;;;15.38;57.04;96331.56;5066589;28;20469;-65
2022/10/06 02:06:30;;;;;;;;;;;;;;;15.48;57.20;96331.31;5065506;28;20017;-66
2022/10/06 02:08:55;;;;;;;;;;;;;;;15.52;57.07;96329.63;5067787;28;20024;-66
2022/10/06 02:11:20;;;;;;;;;;;;;;;15.53;57.08;96336.56;5067060;28;20016;-65
2022/10/06 02:13:45;;;;;;;;;;;;;;;15.50;57.40;96334.47;5069326;28;20088;-65
2022/10/06 02:16:12;;;;;;;;;;;;;;;15.45;57.41;96336.50;5069772;28;20013;-66
2022/10/06 02:18:38;;;;;;;;;;;;;;;15.55;56.91;96333.56;5071037;28;20017;-65
2022/10/06 02:21:03;;;;;;;;;;;;;;;15.51;56.89;96340.66;5070647;28;20019;-65
2022/10/06 02:23:29;;;;;;;;;;;;;;;15.58;56.73;96338.31;5071537;28;20116;-65
2022/10/06 02:26:13;;;;;;;;;;;;;;;15.60;56.57;96331.53;5071532;28;20020;-65
2022/10/06 02:28:38;;;;;;;;;;;;;;;15.63;56.73;96332.03;5068237;28;20071;-65
2022/10/06 02:31:06;;;;;;;;;;;;;;;15.67;56.54;96341.09;5070331;28;20050;-65
2022/10/06 02:33:31;;;;;;;;;;;;;;;15.68;56.95;96342.66;5069905;28;20020;-65
2022/10/06 02:35:57;;;;;;;;;;;;;;;15.66;56.98;96351.03;5072731;28;20009;-65
2022/10/06 02:38:23;;;;;;;;;;;;;;;15.64;56.96;96341.69;5069990;28;20048;-65
2022/10/06 02:40:48;;;;;;;;;;;;;;;15.64;57.13;96347.84;5069003;28;20082;-65
2022/10/06 02:43:13;;;;;;;;;;;;;;;15.60;57.13;96354.88;5084201;28;20374;-65
2022/10/06 02:45:39;;;;;;;;;;;;;;;15.59;57.56;96351.41;5070256;28;20376;-65
2022/10/06 02:48:04;;;;;;;;;;;;;;;15.57;57.30;96358.19;5070283;28;20450;-65
2022/10/06 02:50:29;;;;;;;;;;;;;;;15.53;57.51;96360.69;5070934;28;20066;-66
2022/10/06 02:52:55;;;;;;;;;;;;;;;15.52;57.66;96364.47;5070669;28;20378;-65
2022/10/06 02:55:20;;;;;;;;;;;;;;;15.48;57.73;96370.75;5070532;28;20024;-65
2022/10/06 02:57:45;;;;;;;;;;;;;;;15.47;57.73;96364.59;5069775;28;20022;-65
2022/10/06 03:00:11;;;;;;;;;;;;;;;15.41;57.88;96371.19;5070546;28;20036;-66
2022/10/06 03:02:36;;;;;;;;;;;;;;;15.28;58.08;96369.34;5070631;28;20020;-66
2022/10/06 03:05:02;;;;;;;;;;;;;;;15.27;58.36;96370.44;5070752;28;20382;-65
2022/10/06 03:07:27;;;;;;;;;;;;;;;15.24;58.75;96376.38;5067177;28;20028;-66
2022/10/06 03:09:52;;;;;;;;;;;;;;;15.20;58.49;96373.53;5071543;28;20036;-65
2022/10/06 03:12:17;;;;;;;;;;;;;;;15.16;59.10;96379.81;5069620;28;20022;-66
2022/10/06 03:14:42;;;;;;;;;;;;;;;15.10;58.67;96373.78;5070225;28;20132;-65
2022/10/06 03:17:08;;;;;;;;;;;;;;;15.06;59.28;96373.56;5069561;28;20024;-66
2022/10/06 03:19:34;;;;;;;;;;;;;;;15.01;59.59;96379.03;5069822;28;20512;-65
2022/10/06 03:22:00;;;;;;;;;;;;;;;14.98;59.31;96381.53;5069301;28;20107;-65
2022/10/06 03:24:25;;;;;;;;;;;;;;;14.94;59.67;96389.38;5069253;28;20024;-65
2022/10/06 03:26:50;;;;;;;;;;;;;;;14.35;59.81;96310.78;5067830;28;20025;-65
2022/10/06 03:29:15;;;;;;;;;;;;;;;14.89;60.03;96394.84;5068725;28;20020;-65
2022/10/06 03:31:41;;;;;;;;;;;;;;;14.85;60.06;96391.19;5069738;28;20036;-65
2022/10/06 03:34:06;;;;;;;;;;;;;;;14.82;60.06;96386.41;5070496;28;20358;-65
2022/10/06 03:36:32;;;;;;;;;;;;;;;14.80;60.61;96402.00;5070466;28;20017;-66
2022/10/06 03:38:57;;;;;;;;;;;;;;;14.77;60.38;96392.69;5067738;28;20020;-65
2022/10/06 03:41:24;;;;;;;;;;;;;;;14.77;60.57;96399.91;5071520;28;20055;-65
2022/10/06 03:43:50;;;;;;;;;;;;;;;14.74;60.70;96403.19;5068801;28;20142;-65
2022/10/06 03:46:17;;;;;;;;;;;;;;;14.73;60.72;96406.97;5070186;28;20013;-65
2022/10/06 03:48:42;;;;;;;;;;;;;;;14.69;60.97;96409.47;5067995;28;20021;-65
2022/10/06 03:51:12;;;;;;;;;;;;;;;14.66;60.60;96409.25;5068220;28;20016;-66
2022/10/06 03:53:37;;;;;;;;;;;;;;;14.12;60.54;96330.50;5069963;28;20017;-66
2022/10/06 03:56:03;;;;;;;;;;;;;;;14.57;60.85;96409.16;5071116;28;20005;-66
2022/10/06 03:58:28;;;;;;;;;;;;;;;14.49;61.26;96415.22;5068892;28;20025;-65
2022/10/06 04:00:57;;;;;;;;;;;;;;;14.46;60.93;96415.78;5068556;28;20013;-65
2022/10/06 04:03:22;;;;;;;;;;;;;;;14.44;61.34;96417.97;5070009;28;20480;-65
2022/10/06 04:05:55;;;;;;;;;;;;;;;14.42;60.88;96420.91;5068988;28;20013;-65
2022/10/06 04:08:20;;;;;;;;;;;;;;;14.43;60.93;96419.81;5068028;28;20100;-66
2022/10/06 04:10:45;;;;;;;;;;;;;;;14.42;60.74;96420.91;5068116;28;20108;-65
2022/10/06 04:13:10;;;;;;;;;;;;;;;14.43;60.70;96427.06;5070644;28;20104;-65
2022/10/06 04:15:36;;;;;;;;;;;;;;;14.41;60.90;96440.75;5067662;28;20750;-65
2022/10/06 04:18:01;;;;;;;;;;;;;;;14.40;60.93;96428.47;5069341;28;20024;-65
2022/10/06 04:20:27;;;;;;;;;;;;;;;14.40;60.91;96430.34;5069359;28;20024;-66
2022/10/06 04:22:53;;;;;;;;;;;;;;;14.39;60.92;96431.44;5069588;28;20018;-66
2022/10/06 04:25:18;;;;;;;;;;;;;;;14.39;60.78;96432.22;5068241;28;20056;-65
2022/10/06 04:27:44;;;;;;;;;;;;;;;14.38;60.42;96430.63;5070654;28;20090;-65
2022/10/06 04:30:09;;;;;;;;;;;;;;;14.39;60.81;96440.25;5067074;28;20473;-66
2022/10/06 04:32:34;;;;;;;;;;;;;;;14.39;60.61;96445.63;5060607;28;20022;-67
2022/10/06 04:34:59;;;;;;;;;;;;;;;14.39;60.55;96442.94;5050989;28;20525;-65
2022/10/06 04:37:27;;;;;;;;;;;;;;;14.38;60.84;96444.00;5056780;28;20019;-64
2022/10/06 04:39:52;;;;;;;;;;;;;;;14.38;60.69;96446.69;5068794;28;20024;-64
2022/10/06 04:42:17;;;;;;;;;;;;;;;14.38;60.61;96449.34;5069178;28;20017;-65
2022/10/06 04:44:43;;;;;;;;;;;;;;;14.38;60.42;96456.59;5067796;28;20073;-65
2022/10/06 04:47:08;;;;;;;;;;;;;;;14.36;60.10;96456.91;5066965;28;20024;-64
2022/10/06 04:49:33;;;;;;;;;;;;;;;14.36;60.40;96453.44;5067632;28;20017;-64
2022/10/06 04:51:58;;;;;;;;;;;;;;;14.36;60.07;96454.22;5068028;28;20062;-65
2022/10/06 04:54:23;;;;;;;;;;;;;;;14.34;60.37;96452.94;5068138;28;20013;-65
2022/10/06 04:56:48;;;;;;;;;;;;;;;14.31;59.98;96451.66;5068073;28;20021;-65
2022/10/06 04:59:14;;;;;;;;;;;;;;;14.31;59.99;96459.69;5067508;28;20393;-64
2022/10/06 05:01:39;;;;;;;;;;;;;;;14.31;60.31;96465.03;5068075;28;20021;-67
2022/10/06 05:04:05;;;;;;;;;;;;;;;14.32;60.34;96463.94;5067818;28;20014;-64
2022/10/06 05:06:32;;;;;;;;;;;;;;;14.32;60.01;96463.94;5067934;28;20025;-66
2022/10/06 05:08:59;;;;;;;;;;;;;;;14.30;59.99;96466.91;5067781;28;20524;-65
2022/10/06 05:11:24;;;;;;;;;;;;;;;14.33;60.13;96468.22;5068049;28;20362;-64
2022/10/06 05:13:52;;;;;;;;;;;;;;;14.36;59.99;96464.94;5066499;28;20016;-65
2022/10/06 05:16:18;;;;;;;;;;;;;;;14.38;59.83;96462.75;5066467;28;20008;-66
2022/10/06 05:18:43;;;;;;;;;;;;;;;14.39;59.71;96468.91;5061077;28;20063;-64
2022/10/06 05:21:16;;;;;;;;;;;;;;;14.40;59.51;96465.94;5062168;28;20071;-65
2022/10/06 05:23:42;;;;;;;;;;;;;;;14.41;59.34;96478.22;5068857;28;20013;-66
2022/10/06 05:26:09;;;;;;;;;;;;;;;14.44;59.60;96479.53;5068378;28;20017;-65
2022/10/06 05:28:34;;;;;;;;;;;;;;;14.47;59.16;96473.56;5063785;28;20481;-66
2022/10/06 05:31:01;;;;;;;;;;;;;;;14.50;58.98;96489.09;5049908;28;20021;-64
2022/10/06 05:33:28;;;;;;;;;;;;;;;14.54;59.04;96498.91;5049983;28;20032;-63
2022/10/06 05:35:56;;;;;;;;;;;;;;;14.59;58.99;96495.34;5049811;28;20063;-64
2022/10/06 05:38:22;;;;;;;;;;;;;;;14.63;59.00;96495.53;5067544;28;20017;-68
2022/10/06 05:40:48;;;;;;;;;;;;;;;14.68;58.95;96495.44;5063292;28;20008;-67
2022/10/06 05:43:13;;;;;;;;;;;;;;;14.71;58.77;96502.91;5067876;28;20024;-67
2022/10/06 05:45:38;;;;;;;;;;;;;;;14.71;58.58;96503.69;5057894;28;20053;-67
2022/10/06 05:48:03;;;;;;;;;;;;;;;14.81;58.37;96508.06;5059661;28;20405;-64
2022/10/06 05:50:29;;;;;;;;;;;;;;;14.82;58.23;96505.06;5060302;28;20021;-65
2022/10/06 05:52:54;;;;;;;;;;;;;;;14.94;58.05;96512.59;5068950;28;20012;-66
2022/10/06 05:55:19;;;;;;;;;;;;;;;15.02;58.03;96516.50;5071319;28;20017;-67
2022/10/06 05:57:44;;;;;;;;;;;;;;;15.09;57.96;96517.66;5073657;28;20446;-65
2022/10/06 06:00:10;;;;;;;;;;;;;;;15.16;57.69;96521.84;5071159;28;20021;-64
2022/10/06 06:02:35;;;;;;;;;;;;;;;15.22;57.64;96528.69;5070245;28;20040;-65
2022/10/06 06:05:00;;;;;;;;;;;;;;;15.30;57.23;96534.16;5072694;28;20111;-65
2022/10/06 06:07:25;;;;;;;;;;;;;;;15.34;56.70;96537.81;5072447;28;20025;-66
2022/10/06 06:09:52;;;;;;;;;;;;;;;15.41;56.72;96540.09;5071941;28;20492;-68
2022/10/06 06:12:17;;;;;;;;;;;;;;;15.48;56.66;96540.47;5073495;28;20017;-70
2022/10/06 06:17:29;;;;;;;;;;;;;;;15.60;56.16;96548.00;5072818;28;20024;-66
2022/10/06 06:19:54;;;;;;;;;;;;;;;15.65;56.12;96553.28;5072846;28;20048;-68
2022/10/06 06:22:19;;;;;;;;;;;;;;;15.63;55.84;96530.50;5071811;28;20496;-67
2022/10/06 06:24:45;;;;;;;;;;;;;;;15.79;55.95;96553.25;5071975;28;20039;-71
2022/10/06 06:27:10;;;;;;;;;;;;;;;15.85;55.62;96560.88;5073068;28;20065;-65
2022/10/06 06:29:35;;;;;;;;;;;;;;;15.92;55.51;96568.53;5071576;28;20023;-67
2022/10/06 06:32:00;;;;;;;;;;;;;;;16.01;55.56;96574.75;5071657;28;20021;-66
2022/10/06 06:34:26;;;;;;;;;;;;;;;16.13;55.17;96573.44;5071007;28;20020;-68
2022/10/06 06:36:53;;;;;;;;;;;;;;;16.23;54.96;96584.72;5072362;28;20016;-68
2022/10/06 06:39:20;;;;;;;;;;;;;;;16.32;54.98;96576.72;5070147;28;20384;-72
2022/10/06 06:41:45;;;;;;;;;;;;;;;16.42;54.78;96581.03;5072897;28;20122;-70
2022/10/06 06:44:11;;;;;;;;;;;;;;;16.54;54.78;96578.63;5071351;28;20655;-68
2022/10/06 06:46:37;;;;;;;;;;;;;;;16.62;54.62;96592.09;5072652;28;20024;-68
2022/10/06 06:49:05;;;;;;;;;;;;;;;16.72;54.47;96595.66;5072335;28;20092;-69
2022/10/06 06:51:32;;;;;;;;;;;;;;;16.81;54.28;96596.50;5072790;28;20017;-68
2022/10/06 06:53:59;;;;;;;;;;;;;;;17.03;53.96;96601.03;5070096;28;20397;-68
2022/10/06 06:56:25;;;;;;;;;;;;;;;17.17;53.60;96601.72;5073188;28;20009;-69
2022/10/06 06:58:50;;;;;;;;;;;;;;;17.29;53.48;96596.53;5070974;28;20028;-69
2022/10/06 07:01:17;;;;;;;;;;;;;;;17.35;53.50;96603.41;5072455;28;20481;-67
2022/10/06 07:03:46;;;;;;;;;;;;;;;17.38;52.97;96610.81;5071123;28;20110;-68
2022/10/06 07:06:13;;;;;;;;;;;;;;;17.55;53.21;96614.66;5072043;28;20009;-67
2022/10/06 07:08:43;;;;;;;;;;;;;;;17.63;53.09;96619.28;5068837;28;20056;-67
2022/10/06 07:11:11;;;;;;;;;;;;;;;17.72;52.76;96619.31;5068697;28;20017;-68
2022/10/06 07:13:36;;;;;;;;;;;;;;;17.86;52.34;96620.81;5064484;28;20013;-68
2022/10/06 07:27:04;;;;;;;;;;;;;;;18.23;51.05;96642.84;5069231;28;20510;-66
2022/10/06 07:29:29;;;;;;;;;;;;;;;18.12;51.51;96639.69;5069398;28;20237;-67
2022/10/06 07:31:54;;;;;;;;;;;;;;;18.22;51.00;96640.47;5069845;28;20481;-67
2022/10/06 07:34:21;;;;;;;;;;;;;;;18.65;50.86;96641.25;5070031;28;20066;-67
2022/10/06 07:36:53;;;;;;;;;;;;;;;18.78;49.76;96636.81;5068314;28;20061;-67
2022/10/06 07:39:18;;;;;;;;;;;;;;;17.97;51.01;96648.22;5068988;28;20060;-67
2022/10/06 07:41:43;;;;;;;;;;;;;;;18.43;49.94;96641.44;5071332;28;20442;-67
2022/10/06 07:44:09;;;;;;;;;;;;;;;18.50;49.43;96649.81;5069898;28;20417;-67
2022/10/06 07:46:34;;;;;;;;;;;;;;;18.58;49.63;96640.97;5070961;28;20048;-67
2022/10/06 07:48:59;;;;;;;;;;;;;;;18.05;50.95;96652.81;5069459;28;20018;-66
2022/10/06 07:51:26;;;;;;;;;;;;;;;18.35;50.03;96650.31;5070333;28;20028;-66
2022/10/06 07:53:52;;;;;;;;;;;;;;;18.75;48.66;96642.88;5070675;28;20070;-67
2022/10/06 07:56:19;;;;;;;;;;;;;;;19.12;48.54;96651.34;5071122;28;20552;-66
2022/10/06 07:58:44;;;;;;;;;;;;;;;18.90;48.97;96649.66;5065953;28;20021;-67
2022/10/06 08:01:11;;;;;;;;;;;;;;;19.33;48.20;96654.91;5062212;28;20028;-66
2022/10/06 08:03:37;;;;;;;;;;;;;;;19.21;48.57;96652.13;5068735;28;20020;-66
2022/10/06 08:06:03;;;;;;;;;;;;;;;19.45;48.29;96662.38;5069498;28;20021;-67
2022/10/06 08:08:35;;;;;;;;;;;;;;;18.81;49.75;96662.34;5069847;28;20674;-67
2022/10/06 08:11:00;;;;;;;;;;;;;;;19.23;48.07;96674.16;5069711;28;20409;-66
2022/10/06 08:13:26;;;;;;;;;;;;;;;19.42;48.15;96668.41;5069425;28;20017;-67
2022/10/06 08:15:55;;;;;;;;;;;;;;;18.58;49.81;96675.19;5069437;28;20026;-67
2022/10/06 08:18:20;;;;;;;;;;;;;;;19.10;49.29;96675.94;5069106;28;20017;-67
2022/10/06 08:20:45;;;;;;;;;;;;;;;19.71;48.64;96673.88;5068966;28;20139;-67
2022/10/06 08:23:11;;;;;;;;;;;;;;;19.69;47.56;96667.97;5070599;28;20016;-67
2022/10/06 08:25:41;;;;;;;;;;;;;;;19.33;48.98;96673.81;5069474;28;20021;-67
2022/10/06 08:28:07;;;;;;;;;;;;;;;19.32;48.31;96679.53;5069410;28;20586;-67
2022/10/06 08:30:33;;;;;;;;;;;;;;;19.25;49.15;96680.03;5065566;28;20059;-67
2022/10/06 08:32:58;;;;;;;;;;;;;;;19.21;49.56;96677.19;5070686;28;20378;-67
2022/10/06 08:35:23;;;;;;;;;;;;;;;19.65;48.73;96679.75;5070579;28;20014;-68
2022/10/06 08:37:49;;;;;;;;;;;;;;;18.95;49.76;96681.84;5068301;28;20013;-68
2022/10/06 08:40:14;;;;;;;;;;;;;;;19.66;49.27;96686.75;5070208;28;20013;-68
2022/10/06 08:42:48;;;;;;;;;;;;;;;19.56;49.58;96693.28;5079781;28;20099;-67
2022/10/06 08:45:27;;;;;;;;;;;;;;;19.33;49.63;96691.91;5049252;28;20016;-67
2022/10/06 08:48:04;;;;;;;;;;;;;;;19.39;49.66;96677.91;5050259;28;20010;-68
2022/10/06 08:50:32;;;;;;;;;;;;;;;19.80;49.07;96684.59;5081806;28;20021;-69
2022/10/06 08:53:05;;;;;;;;;;;;;;;19.36;50.18;96683.19;5067415;28;20020;-67
2022/10/06 08:55:40;;;;;;;;;;;;;;;19.96;49.16;96685.66;5069346;28;20013;-68
2022/10/06 08:58:34;;;;;;;;;;;;;;;20.48;48.00;96687.25;5070106;28;20440;-67
2022/10/06 09:01:01;;;;;;;;;;;;;;;20.41;47.63;96684.22;5060115;28;20013;-67
2022/10/06 09:03:28;;;;;;;;;;;;;;;20.35;48.25;96691.75;5068995;28;20044;-67
2022/10/06 09:05:56;;;;;;;;;;;;;;;19.91;48.62;96695.81;5068529;28;20380;-66
2022/10/06 09:08:49;;;;;;;;;;;;;;;20.50;48.11;96698.50;5068404;28;20476;-66
2022/10/06 09:11:29;;;;;;;;;;;;;;;20.30;48.01;96694.66;5071378;28;20372;-67
2022/10/06 09:13:59;;;;;;;;;;;;;;;19.99;48.00;96703.88;5070312;28;20009;-66
2022/10/06 09:16:27;;;;;;;;;;;;;;;19.95;48.82;96694.84;5068253;28;20017;-66
2022/10/06 09:18:58;;;;;;;;;;;;;;;20.06;48.49;96697.97;5068501;28;20052;-66
2022/10/06 09:21:29;;;;;;;;;;;;;;;21.04;46.43;96687.72;5069087;28;20035;-66
2022/10/06 09:23:58;;;;;;;;;;;;;;;20.43;47.86;96687.41;5068798;28;20020;-67
2022/10/06 09:26:28;;;;;;;;;;;;;;;20.74;47.25;96695.94;5073761;28;20016;-67
2022/10/06 09:28:54;;;;;;;;;;;;;;;20.95;46.96;96687.00;5073201;28;20021;-66
2022/10/06 09:31:33;;;;;;;;;;;;;;;21.22;47.11;96691.81;5073261;28;20017;-66
2022/10/06 09:34:03;;;;;;;;;;;;;;;21.39;46.78;96690.06;5069277;28;20075;-66
2022/10/06 09:36:29;;;;;;;;;;;;;;;20.99;46.96;96701.44;5056693;28;21031;-66
2022/10/06 09:38:56;;;;;;;;;;;;;;;20.92;46.92;96693.06;5072002;28;20041;-66
2022/10/06 09:41:23;;;;;;;;;;;;;;;20.63;47.75;96702.88;5073123;28;20013;-66
2022/10/06 09:43:54;;;;;;;;;;;;;;;20.54;48.36;96701.34;5073824;28;20021;-67
2022/10/06 09:46:26;;;;;;;;;;;;;;;20.32;48.90;96702.41;5073784;28;20016;-67
2022/10/06 09:49:20;;;;;;;;;;;;;;;20.57;48.16;96698.75;5071971;28;20013;-67
2022/10/06 09:52:09;;;;;;;;;;;;;;;21.08;47.18;96687.81;5049013;28;20021;-67
2022/10/06 09:54:37;;;;;;;;;;;;;;;21.59;45.88;96688.41;5067445;28;20103;-67
2022/10/06 09:57:23;;;;;;;;;;;;;;;21.23;47.28;96689.88;5073443;28;20010;-67
2022/10/06 09:59:48;;;;;;;;;;;;;;;21.37;46.82;96692.31;5071684;28;20017;-68
2022/10/06 10:02:25;;;;;;;;;;;;;;;21.72;46.05;96695.44;5072118;28;20021;-68
2022/10/06 10:04:52;;;;;;;;;;;;;;;21.35;46.56;96689.97;5073169;28;20031;-68
2022/10/06 10:07:25;;;;;;;;;;;;;;;20.46;48.98;96692.16;5072410;28;20024;-67
2022/10/06 10:09:51;;;;;;;;;;;;;;;20.25;49.63;96692.91;5067697;28;20063;-67
2022/10/06 10:12:23;;;;;;;;;;;;;;;21.03;48.72;96689.59;5066727;28;20478;-67
2022/10/06 10:14:48;;;;;;;;;;;;;;;21.56;47.72;96686.38;5071768;28;20059;-68
2022/10/06 10:17:17;;;;;;;;;;;;;;;21.70;46.80;96684.94;5073171;28;20017;-67
2022/10/06 10:19:46;;;;;;;;;;;;;;;21.87;46.52;96686.63;5070714;28;20017;-68
2022/10/06 10:22:33;;;;;;;;;;;;;;;21.75;46.65;96682.00;5072016;28;20388;-68
2022/10/06 10:24:58;;;;;;;;;;;;;;;21.91;46.31;96684.81;5072922;28;20055;-68
2022/10/06 10:27:50;;;;;;;;;;;;;;;22.17;45.65;96689.91;5072947;28;20009;-68
2022/10/06 10:30:16;;;;;;;;;;;;;;;21.47;47.05;96684.56;5036824;28;20018;-67
2022/10/06 10:32:47;;;;;;;;;;;;;;;22.36;45.43;96680.38;5052543;28;20023;-69
2022/10/06 10:35:21;;;;;;;;;;;;;;;21.88;46.38;96692.84;5052331;28;20014;-69
2022/10/06 10:37:50;;;;;;;;;;;;;;;21.69;47.31;96696.88;5062562;28;20016;-68
2022/10/06 10:40:16;;;;;;;;;;;;;;;21.20;47.75;96702.19;5071510;28;20017;-72
2022/10/06 10:43:04;;;;;;;;;;;;;;;21.76;47.00;96693.63;5071201;28;20013;-69
2022/10/06 10:45:32;;;;;;;;;;;;;;;22.65;45.34;96690.94;5068266;28;20018;-68
2022/10/06 10:47:58;;;;;;;;;;;;;;;22.74;44.85;96694.28;5072617;28;20055;-69
2022/10/06 10:50:26;;;;;;;;;;;;;;;21.98;46.01;96695.88;5070930;28;20072;-70
2022/10/06 10:52:55;;;;;;;;;;;;;;;22.79;45.18;96685.91;5067904;28;20389;-70
2022/10/06 10:55:26;;;;;;;;;;;;;;;23.01;44.24;96691.94;5072414;28;20022;-70
2022/10/06 10:57:53;;;;;;;;;;;;;;;23.24;43.71;96692.97;5070998;28;20385;-70
2022/10/06 11:00:21;;;;;;;;;;;;;;;23.43;44.02;96686.06;5070719;28;20051;-70
2022/10/06 11:02:47;;;;;;;;;;;;;;;23.79;42.82;96693.97;5070940;28;20507;-71
2022/10/06 11:05:12;;;;;;;;;;;;;;;22.93;44.72;96690.16;5070044;28;20098;-70
2022/10/06 11:07:37;;;;;;;;;;;;;;;23.61;43.30;96692.75;5070420;28;20354;-70
2022/10/06 11:10:05;;;;;;;;;;;;;;;22.46;45.24;96696.16;5071796;28;20043;-70
2022/10/06 11:12:37;;;;;;;;;;;;;;;22.72;44.55;96693.84;5070050;28;20640;-71
2022/10/06 11:15:08;;;;;;;;;;;;;;;22.74;45.46;96694.28;5071056;28;20373;-70
2022/10/06 11:17:38;;;;;;;;;;;;;;;23.57;43.53;96686.44;5059428;28;20017;-70
2022/10/06 11:20:07;;;;;;;;;;;;;;;24.21;43.26;96687.16;5071864;28;20562;-70
2022/10/06 11:22:41;;;;;;;;;;;;;;;24.58;41.65;96680.25;5065339;28;20072;-70
2022/10/06 11:25:18;;;;;;;;;;;;;;;25.46;40.95;96673.38;5052157;28;20016;-71
2022/10/06 11:27:54;;;;;;;;;;;;;;;25.70;40.33;96673.03;5052309;28;20381;-71
2022/10/06 11:30:25;;;;;;;;;;;;;;;24.29;42.53;96681.53;5051912;28;20062;-70
2022/10/06 11:32:53;;;;;;;;;;;;;;;23.59;43.31;96674.06;5067104;28;20021;-71
2022/10/06 11:35:18;;;;;;;;;;;;;;;22.87;45.15;96681.47;5070455;28;20108;-71
2022/10/06 11:38:01;;;;;;;;;;;;;;;23.81;43.56;96671.91;5070865;28;20017;-70
2022/10/06 11:40:39;;;;;;;;;;;;;;;23.52;44.24;96673.09;5070147;28;20045;-70
2022/10/06 11:43:14;;;;;;;;;;;;;;;24.06;43.85;96667.06;5070238;28;20013;-70
2022/10/06 11:45:39;;;;;;;;;;;;;;;23.40;44.54;96674.00;5071273;28;20106;-70
2022/10/06 11:48:13;;;;;;;;;;;;;;;24.16;43.56;96669.22;5069874;28;20534;-70
2022/10/06 11:50:43;;;;;;;;;;;;;;;24.63;42.52;96660.16;5070166;28;20529;-71
2022/10/06 11:53:36;;;;;;;;;;;;;;;25.09;41.60;96654.84;5070032;28;20017;-71
2022/10/06 11:56:14;;;;;;;;;;;;;;;25.65;41.10;96656.97;5071503;28;20473;-71
2022/10/06 11:58:54;;;;;;;;;;;;;;;24.96;40.96;96651.47;5068822;28;20047;-70
2022/10/06 12:01:35;;;;;;;;;;;;;;;24.73;42.19;96654.13;5070901;28;20396;-71
2022/10/06 12:04:09;;;;;;;;;;;;;;;25.06;41.57;96650.91;5070951;28;20044;-70
2022/10/06 12:06:40;;;;;;;;;;;;;;;23.53;44.70;96658.38;5069630;28;20013;-70
2022/10/06 12:09:24;;;;;;;;;;;;;;;21.97;48.35;96667.22;5067994;28;20088;-70
2022/10/06 12:11:50;;;;;;;;;;;;;;;21.60;49.73;96671.03;5069073;28;20195;-70
2022/10/06 12:14:25;;;;;;;;;;;;;;;22.10;48.60;96665.25;5070597;28;20036;-70
2022/10/06 12:16:55;;;;;;;;;;;;;;;23.01;46.86;96656.66;5070652;28;20012;-70
2022/10/06 12:19:28;;;;;;;;;;;;;;;22.91;46.58;96651.75;5070312;28;20021;-69
2022/10/06 12:22:21;;;;;;;;;;;;;;;23.51;45.87;96652.53;5070548;28;20111;-70
2022/10/06 12:24:58;;;;;;;;;;;;;;;22.87;46.17;96648.13;5045984;28;20047;-70
2022/10/06 12:27:42;;;;;;;;;;;;;;;22.99;46.00;96640.75;5069505;28;20012;-70
2022/10/06 12:30:33;;;;;;;;;;;;;;;22.49;47.18;96650.19;5070374;28;20019;-70
2022/10/06 12:33:02;;;;;;;;;;;;;;;23.04;45.63;96637.78;5042878;28;20021;-70
2022/10/06 12:35:30;;;;;;;;;;;;;;;23.34;44.79;96634.66;5049182;28;20413;-70
2022/10/06 12:38:04;;;;;;;;;;;;;;;23.31;45.33;96630.72;5051595;28;20048;-70
2022/10/06 12:40:49;;;;;;;;;;;;;;;23.79;44.05;96631.50;5070427;28;20404;-70
2022/10/06 12:43:18;;;;;;;;;;;;;;;23.19;46.58;96635.44;5068312;28;20009;-70
2022/10/06 12:45:57;;;;;;;;;;;;;;;22.27;48.24;96640.66;5068871;28;20017;-70
2022/10/06 12:48:35;;;;;;;;;;;;;;;21.70;49.57;96641.59;5068761;28;20024;-71
2022/10/06 12:51:17;;;;;;;;;;;;;;;22.09;49.11;96638.50;5070302;28;20017;-71
2022/10/06 12:53:54;;;;;;;;;;;;;;;21.60;50.42;96636.66;5067960;28;20020;-70
2022/10/06 12:56:27;;;;;;;;;;;;;;;21.78;49.95;96632.56;5067674;28;20009;-70
2022/10/06 12:58:52;;;;;;;;;;;;;;;22.01;49.91;96626.69;5069435;28;20028;-70
2022/10/06 13:01:17;;;;;;;;;;;;;;;21.50;51.12;96634.38;5070243;28;20005;-70
2022/10/06 13:03:46;;;;;;;;;;;;;;;22.60;48.43;96628.00;5067837;28;20029;-70
2022/10/06 13:06:11;;;;;;;;;;;;;;;22.91;47.25;96622.69;5069282;28;20369;-71
2022/10/06 13:08:37;;;;;;;;;;;;;;;23.14;47.04;96622.91;5068792;28;20017;-70